sensor_id;sensor_type;location;lat;lon;timestamp;temperature;humidity
3334;DHT22;1679;50.392;8.008;2023-05-07T00:01:37;14.70;99.90
3334;DHT22;1679;50.392;8.008;2023-05-07T00:04:03;14.80;99.90
3334;DHT22;1679;50.392;8.008;2023-05-07T00:06:29;14.80;99.90
3334;DHT22;1679;50.392;8.008;2023-05-07T00:08:56;14.70;99.90
3334;DHT22;1679;50.392;8.008;2023-05-07T00:11:22;14.80;99.90
3334;DHT22;1679;50.392;8.008;2023-05-07T00:13:48;14.80;99.90
3334;DHT22;1679;50.392;8.008;2023-05-07T00:16:13;14.80;99.90
3334;DHT22;1679;50.392;8.008;2023-05-07T00:18:39;14.80;99.90
3334;DHT22;1679;50.392;8.008;2023-05-07T00:21:04;14.80;99.90
3334;DHT22;1679;50.392;8.008;2023-05-07T00:23:30;14.80;99.90
3334;DHT22;1679;50.392;8.008;2023-05-07T00:25:56;14.70;99.90
3334;DHT22;1679;50.392;8.008;2023-05-07T00:28:22;14.70;99.90
3334;DHT22;1679;50.392;8.008;2023-05-07T00:30:47;14.70;99.90
3334;DHT22;1679;50.392;8.008;2023-05-07T00:33:13;14.70;99.90
3334;DHT22;1679;50.392;8.008;2023-05-07T00:35:38;14.70;99.90
3334;DHT22;1679;50.392;8.008;2023-05-07T00:38:04;14.70;99.90
3334;DHT22;1679;50.392;8.008;2023-05-07T00:40:29;14.70;99.90
3334;DHT22;1679;50.392;8.008;2023-05-07T00:42:55;14.60;99.90
3334;DHT22;1679;50.392;8.008;2023-05-07T00:45:26;14.70;99.90
3334;DHT22;1679;50.392;8.008;2023-05-07T00:47:58;14.60;99.90
3334;DHT22;1679;50.392;8.008;2023-05-07T00:50:25;14.60;99.90
3334;DHT22;1679;50.392;8.008;2023-05-07T00:52:52;14.70;99.90
3334;DHT22;1679;50.392;8.008;2023-05-07T00:55:18;14.70;99.90
3334;DHT22;1679;50.392;8.008;2023-05-07T00:57:44;14.60;99.90
3334;DHT22;1679;50.392;8.008;2023-05-07T01:00:10;14.60;99.90
3334;DHT22;1679;50.392;8.008;2023-05-07T01:02:39;14.60;99.90
3334;DHT22;1679;50.392;8.008;2023-05-07T01:05:06;14.60;99.90
3334;DHT22;1679;50.392;8.008;2023-05-07T01:07:33;14.60;99.90
3334;DHT22;1679;50.392;8.008;2023-05-07T01:10:00;14.60;99.90
3334;DHT22;1679;50.392;8.008;2023-05-07T01:12:27;14.70;99.90
3334;DHT22;1679;50.392;8.008;2023-05-07T01:14:53;14.70;99.90
3334;DHT22;1679;50.392;8.008;2023-05-07T01:17:19;14.60;99.90
3334;DHT22;1679;50.392;8.008;2023-05-07T01:19:45;14.60;99.90
3334;DHT22;1679;50.392;8.008;2023-05-07T01:22:11;14.60;99.90
3334;DHT22;1679;50.392;8.008;2023-05-07T01:24:37;14.60;99.90
3334;DHT22;1679;50.392;8.008;2023-05-07T01:27:04;14.60;99.90
3334;DHT22;1679;50.392;8.008;2023-05-07T01:29:30;14.60;99.90
3334;DHT22;1679;50.392;8.008;2023-05-07T01:32:00;14.60;99.90
3334;DHT22;1679;50.392;8.008;2023-05-07T01:34:28;14.60;99.90
3334;DHT22;1679;50.392;8.008;2023-05-07T01:36:56;14.70;99.90
3334;DHT22;1679;50.392;8.008;2023-05-07T01:39:27;14.60;99.90
3334;DHT22;1679;50.392;8.008;2023-05-07T01:41:55;14.70;99.90
3334;DHT22;1679;50.392;8.008;2023-05-07T01:44:21;14.70;99.90
3334;DHT22;1679;50.392;8.008;2023-05-07T01:46:47;14.70;99.90
3334;DHT22;1679;50.392;8.008;2023-05-07T01:49:13;14.60;99.90
3334;DHT22;1679;50.392;8.008;2023-05-07T01:51:39;14.60;99.90
3334;DHT22;1679;50.392;8.008;2023-05-07T01:54:06;14.60;99.90
3334;DHT22;1679;50.392;8.008;2023-05-07T01:56:33;14.50;99.90
3334;DHT22;1679;50.392;8.008;2023-05-07T01:58:59;14.50;99.90
3334;DHT22;1679;50.392;8.008;2023-05-07T02:01:24;14.50;99.90
3334;DHT22;1679;50.392;8.008;2023-05-07T02:03:50;14.50;99.90
3334;DHT22;1679;50.392;8.008;2023-05-07T02:06:15;14.50;99.90
3334;DHT22;1679;50.392;8.008;2023-05-07T02:08:41;14.50;99.90
3334;DHT22;1679;50.392;8.008;2023-05-07T02:11:06;14.50;99.90
3334;DHT22;1679;50.392;8.008;2023-05-07T02:13:33;14.50;99.90
3334;DHT22;1679;50.392;8.008;2023-05-07T02:16:02;14.50;99.90
3334;DHT22;1679;50.392;8.008;2023-05-07T02:18:28;14.50;99.90
3334;DHT22;1679;50.392;8.008;2023-05-07T02:20:54;14.50;99.90
3334;DHT22;1679;50.392;8.008;2023-05-07T02:23:20;14.40;99.90
3334;DHT22;1679;50.392;8.008;2023-05-07T02:25:47;14.40;99.90
3334;DHT22;1679;50.392;8.008;2023-05-07T02:28:13;14.30;99.90
3334;DHT22;1679;50.392;8.008;2023-05-07T02:30:38;14.40;99.90
3334;DHT22;1679;50.392;8.008;2023-05-07T02:33:05;14.40;99.90
3334;DHT22;1679;50.392;8.008;2023-05-07T02:35:32;14.40;99.90
3334;DHT22;1679;50.392;8.008;2023-05-07T02:37:58;14.40;99.90
3334;DHT22;1679;50.392;8.008;2023-05-07T02:40:23;14.40;99.90
3334;DHT22;1679;50.392;8.008;2023-05-07T02:42:50;14.40;99.90
3334;DHT22;1679;50.392;8.008;2023-05-07T02:45:15;14.40;99.90
3334;DHT22;1679;50.392;8.008;2023-05-07T02:47:41;14.40;99.90
3334;DHT22;1679;50.392;8.008;2023-05-07T02:50:07;14.40;99.90
3334;DHT22;1679;50.392;8.008;2023-05-07T02:52:32;14.40;99.90
3334;DHT22;1679;50.392;8.008;2023-05-07T02:54:58;14.40;99.90
3334;DHT22;1679;50.392;8.008;2023-05-07T02:57:24;14.30;99.90
3334;DHT22;1679;50.392;8.008;2023-05-07T02:59:51;14.30;99.90
3334;DHT22;1679;50.392;8.008;2023-05-07T03:02:17;14.30;99.90
3334;DHT22;1679;50.392;8.008;2023-05-07T03:04:42;14.30;99.90
3334;DHT22;1679;50.392;8.008;2023-05-07T03:07:08;14.30;99.90
3334;DHT22;1679;50.392;8.008;2023-05-07T03:09:33;14.20;99.90
3334;DHT22;1679;50.392;8.008;2023-05-07T03:12:00;14.30;99.90
3334;DHT22;1679;50.392;8.008;2023-05-07T03:14:26;14.20;99.90
3334;DHT22;1679;50.392;8.008;2023-05-07T03:16:52;14.20;99.90
3334;DHT22;1679;50.392;8.008;2023-05-07T03:19:18;14.10;99.90
3334;DHT22;1679;50.392;8.008;2023-05-07T03:21:43;14.10;99.90
3334;DHT22;1679;50.392;8.008;2023-05-07T03:24:09;14.10;99.90
3334;DHT22;1679;50.392;8.008;2023-05-07T03:26:35;14.00;99.90
3334;DHT22;1679;50.392;8.008;2023-05-07T03:29:00;14.10;99.90
3334;DHT22;1679;50.392;8.008;2023-05-07T03:31:26;14.00;99.90
3334;DHT22;1679;50.392;8.008;2023-05-07T03:33:53;14.00;99.90
3334;DHT22;1679;50.392;8.008;2023-05-07T03:36:19;14.00;99.90
3334;DHT22;1679;50.392;8.008;2023-05-07T03:38:45;13.90;99.90
3334;DHT22;1679;50.392;8.008;2023-05-07T03:41:11;13.80;99.90
3334;DHT22;1679;50.392;8.008;2023-05-07T03:43:38;13.80;99.90
3334;DHT22;1679;50.392;8.008;2023-05-07T03:46:03;13.80;99.90
3334;DHT22;1679;50.392;8.008;2023-05-07T03:48:29;13.90;99.90
3334;DHT22;1679;50.392;8.008;2023-05-07T03:50:55;14.00;99.90
3334;DHT22;1679;50.392;8.008;2023-05-07T03:53:21;13.90;99.90
3334;DHT22;1679;50.392;8.008;2023-05-07T03:55:48;14.00;99.90
3334;DHT22;1679;50.392;8.008;2023-05-07T03:58:13;14.00;99.90
3334;DHT22;1679;50.392;8.008;2023-05-07T04:00:40;13.90;99.90
3334;DHT22;1679;50.392;8.008;2023-05-07T04:03:06;13.90;99.90
3334;DHT22;1679;50.392;8.008;2023-05-07T04:05:31;13.90;99.90
3334;DHT22;1679;50.392;8.008;2023-05-07T04:08:01;14.00;99.90
3334;DHT22;1679;50.392;8.008;2023-05-07T04:10:26;14.00;99.90
3334;DHT22;1679;50.392;8.008;2023-05-07T04:12:53;13.90;99.90
3334;DHT22;1679;50.392;8.008;2023-05-07T04:15:19;14.00;99.90
3334;DHT22;1679;50.392;8.008;2023-05-07T04:17:45;14.00;99.90
3334;DHT22;1679;50.392;8.008;2023-05-07T04:20:13;13.90;99.90
3334;DHT22;1679;50.392;8.008;2023-05-07T04:22:39;14.00;99.90
3334;DHT22;1679;50.392;8.008;2023-05-07T04:25:06;14.00;99.90
3334;DHT22;1679;50.392;8.008;2023-05-07T04:27:33;14.00;99.90
3334;DHT22;1679;50.392;8.008;2023-05-07T04:29:58;14.00;99.90
3334;DHT22;1679;50.392;8.008;2023-05-07T04:32:27;14.00;99.90
3334;DHT22;1679;50.392;8.008;2023-05-07T04:34:55;14.00;99.90
3334;DHT22;1679;50.392;8.008;2023-05-07T04:37:21;14.00;99.90
3334;DHT22;1679;50.392;8.008;2023-05-07T04:39:47;14.00;99.90
3334;DHT22;1679;50.392;8.008;2023-05-07T04:42:17;14.00;99.90
3334;DHT22;1679;50.392;8.008;2023-05-07T04:44:44;14.00;99.90
3334;DHT22;1679;50.392;8.008;2023-05-07T04:47:09;14.10;99.90
3334;DHT22;1679;50.392;8.008;2023-05-07T04:49:36;14.10;99.90
3334;DHT22;1679;50.392;8.008;2023-05-07T04:52:01;14.10;99.90
3334;DHT22;1679;50.392;8.008;2023-05-07T04:54:27;14.20;99.90
3334;DHT22;1679;50.392;8.008;2023-05-07T04:56:53;14.20;99.90
3334;DHT22;1679;50.392;8.008;2023-05-07T04:59:18;14.20;99.90
3334;DHT22;1679;50.392;8.008;2023-05-07T05:01:45;14.20;99.90
3334;DHT22;1679;50.392;8.008;2023-05-07T05:04:10;14.30;99.90
3334;DHT22;1679;50.392;8.008;2023-05-07T05:06:37;14.30;99.90
3334;DHT22;1679;50.392;8.008;2023-05-07T05:09:03;14.30;99.90
3334;DHT22;1679;50.392;8.008;2023-05-07T05:11:31;14.20;99.90
3334;DHT22;1679;50.392;8.008;2023-05-07T05:13:56;14.30;99.90
3334;DHT22;1679;50.392;8.008;2023-05-07T05:16:24;14.40;99.90
3334;DHT22;1679;50.392;8.008;2023-05-07T05:18:51;14.40;99.90
3334;DHT22;1679;50.392;8.008;2023-05-07T05:21:17;14.40;99.90
3334;DHT22;1679;50.392;8.008;2023-05-07T05:23:43;14.40;99.90
3334;DHT22;1679;50.392;8.008;2023-05-07T05:26:09;14.40;99.90
3334;DHT22;1679;50.392;8.008;2023-05-07T05:28:35;14.40;99.90
3334;DHT22;1679;50.392;8.008;2023-05-07T05:31:01;14.50;99.90
3334;DHT22;1679;50.392;8.008;2023-05-07T05:33:26;14.50;99.90
3334;DHT22;1679;50.392;8.008;2023-05-07T05:35:54;14.40;99.90
3334;DHT22;1679;50.392;8.008;2023-05-07T05:38:19;14.50;99.90
3334;DHT22;1679;50.392;8.008;2023-05-07T05:40:46;14.60;99.90
3334;DHT22;1679;50.392;8.008;2023-05-07T05:43:12;14.60;99.90
3334;DHT22;1679;50.392;8.008;2023-05-07T05:45:37;14.70;99.90
3334;DHT22;1679;50.392;8.008;2023-05-07T05:48:03;14.70;99.90
3334;DHT22;1679;50.392;8.008;2023-05-07T05:50:30;14.60;99.90
3334;DHT22;1679;50.392;8.008;2023-05-07T05:52:55;14.70;99.90
3334;DHT22;1679;50.392;8.008;2023-05-07T05:55:21;14.90;99.90
3334;DHT22;1679;50.392;8.008;2023-05-07T05:57:49;14.90;99.90
3334;DHT22;1679;50.392;8.008;2023-05-07T06:00:16;15.00;99.90
3334;DHT22;1679;50.392;8.008;2023-05-07T06:02:41;15.10;99.90
3334;DHT22;1679;50.392;8.008;2023-05-07T06:05:08;15.10;99.90
3334;DHT22;1679;50.392;8.008;2023-05-07T06:07:34;15.30;99.90
3334;DHT22;1679;50.392;8.008;2023-05-07T06:10:00;15.30;99.90
3334;DHT22;1679;50.392;8.008;2023-05-07T06:12:27;15.30;99.90
3334;DHT22;1679;50.392;8.008;2023-05-07T06:14:53;15.30;99.90
3334;DHT22;1679;50.392;8.008;2023-05-07T06:17:18;15.40;99.90
3334;DHT22;1679;50.392;8.008;2023-05-07T06:19:44;15.50;99.90
3334;DHT22;1679;50.392;8.008;2023-05-07T06:22:09;15.60;99.90
3334;DHT22;1679;50.392;8.008;2023-05-07T06:24:36;15.60;99.90
3334;DHT22;1679;50.392;8.008;2023-05-07T06:27:02;15.90;99.90
3334;DHT22;1679;50.392;8.008;2023-05-07T06:29:28;16.00;99.90
3334;DHT22;1679;50.392;8.008;2023-05-07T06:31:56;16.00;99.90
3334;DHT22;1679;50.392;8.008;2023-05-07T06:34:22;16.10;99.90
3334;DHT22;1679;50.392;8.008;2023-05-07T06:36:47;16.10;99.90
3334;DHT22;1679;50.392;8.008;2023-05-07T06:39:13;16.10;99.90
3334;DHT22;1679;50.392;8.008;2023-05-07T06:41:38;16.20;99.90
3334;DHT22;1679;50.392;8.008;2023-05-07T06:44:04;16.20;99.90
3334;DHT22;1679;50.392;8.008;2023-05-07T06:46:30;16.30;99.90
3334;DHT22;1679;50.392;8.008;2023-05-07T06:48:56;16.40;99.90
3334;DHT22;1679;50.392;8.008;2023-05-07T06:51:22;16.50;99.90
3334;DHT22;1679;50.392;8.008;2023-05-07T06:53:48;16.70;99.90
3334;DHT22;1679;50.392;8.008;2023-05-07T06:56:13;16.70;99.90
3334;DHT22;1679;50.392;8.008;2023-05-07T06:58:39;16.90;99.90
3334;DHT22;1679;50.392;8.008;2023-05-07T07:01:04;17.00;99.90
3334;DHT22;1679;50.392;8.008;2023-05-07T07:03:30;16.80;99.90
3334;DHT22;1679;50.392;8.008;2023-05-07T07:05:57;16.70;99.90
3334;DHT22;1679;50.392;8.008;2023-05-07T07:08:22;16.80;99.90
3334;DHT22;1679;50.392;8.008;2023-05-07T07:10:48;17.00;99.90
3334;DHT22;1679;50.392;8.008;2023-05-07T07:13:14;17.30;99.90
3334;DHT22;1679;50.392;8.008;2023-05-07T07:15:39;17.50;99.90
3334;DHT22;1679;50.392;8.008;2023-05-07T07:18:06;17.60;99.90
3334;DHT22;1679;50.392;8.008;2023-05-07T07:20:32;17.50;99.90
3334;DHT22;1679;50.392;8.008;2023-05-07T07:22:58;17.40;99.90
3334;DHT22;1679;50.392;8.008;2023-05-07T07:25:24;17.70;99.90
3334;DHT22;1679;50.392;8.008;2023-05-07T07:27:50;18.00;99.90
3334;DHT22;1679;50.392;8.008;2023-05-07T07:30:16;18.00;99.90
3334;DHT22;1679;50.392;8.008;2023-05-07T07:32:41;17.70;99.90
3334;DHT22;1679;50.392;8.008;2023-05-07T07:35:08;17.60;99.90
3334;DHT22;1679;50.392;8.008;2023-05-07T07:37:34;17.80;99.90
3334;DHT22;1679;50.392;8.008;2023-05-07T07:39:59;17.80;99.90
3334;DHT22;1679;50.392;8.008;2023-05-07T07:42:25;17.80;99.90
3334;DHT22;1679;50.392;8.008;2023-05-07T07:44:50;18.00;99.90
3334;DHT22;1679;50.392;8.008;2023-05-07T07:47:16;18.40;99.90
3334;DHT22;1679;50.392;8.008;2023-05-07T07:49:41;18.50;99.90
3334;DHT22;1679;50.392;8.008;2023-05-07T07:52:07;18.50;99.90
3334;DHT22;1679;50.392;8.008;2023-05-07T07:54:32;18.70;99.90
3334;DHT22;1679;50.392;8.008;2023-05-07T07:57:00;18.70;99.90
3334;DHT22;1679;50.392;8.008;2023-05-07T07:59:26;18.40;99.90
3334;DHT22;1679;50.392;8.008;2023-05-07T08:01:52;18.30;99.90
3334;DHT22;1679;50.392;8.008;2023-05-07T08:04:22;18.30;99.90
3334;DHT22;1679;50.392;8.008;2023-05-07T08:06:47;18.40;99.90
3334;DHT22;1679;50.392;8.008;2023-05-07T08:09:13;18.50;99.90
3334;DHT22;1679;50.392;8.008;2023-05-07T08:11:39;18.70;99.90
3334;DHT22;1679;50.392;8.008;2023-05-07T08:14:04;18.60;99.90
3334;DHT22;1679;50.392;8.008;2023-05-07T08:16:30;18.70;99.90
3334;DHT22;1679;50.392;8.008;2023-05-07T08:18:56;18.80;99.90
3334;DHT22;1679;50.392;8.008;2023-05-07T08:21:22;18.90;99.90
3334;DHT22;1679;50.392;8.008;2023-05-07T08:23:49;19.10;99.90
3334;DHT22;1679;50.392;8.008;2023-05-07T08:26:15;19.30;99.90
3334;DHT22;1679;50.392;8.008;2023-05-07T08:28:40;19.50;99.90
3334;DHT22;1679;50.392;8.008;2023-05-07T08:31:06;19.40;99.90
3334;DHT22;1679;50.392;8.008;2023-05-07T08:33:31;19.30;99.90
3334;DHT22;1679;50.392;8.008;2023-05-07T08:35:57;19.50;99.90
3334;DHT22;1679;50.392;8.008;2023-05-07T08:38:23;19.50;99.90
3334;DHT22;1679;50.392;8.008;2023-05-07T08:40:48;19.90;99.90
3334;DHT22;1679;50.392;8.008;2023-05-07T08:43:14;20.30;99.90
3334;DHT22;1679;50.392;8.008;2023-05-07T08:45:41;20.90;99.90
3334;DHT22;1679;50.392;8.008;2023-05-07T08:48:15;20.60;99.90
3334;DHT22;1679;50.392;8.008;2023-05-07T08:50:40;20.40;99.90
3334;DHT22;1679;50.392;8.008;2023-05-07T08:53:06;19.80;99.90
3334;DHT22;1679;50.392;8.008;2023-05-07T08:55:32;19.60;99.90
3334;DHT22;1679;50.392;8.008;2023-05-07T08:57:59;19.90;99.90
3334;DHT22;1679;50.392;8.008;2023-05-07T09:00:24;20.40;99.90
3334;DHT22;1679;50.392;8.008;2023-05-07T09:02:50;20.40;99.90
3334;DHT22;1679;50.392;8.008;2023-05-07T09:05:16;20.60;99.90
3334;DHT22;1679;50.392;8.008;2023-05-07T09:07:41;20.80;99.90
3334;DHT22;1679;50.392;8.008;2023-05-07T09:10:07;20.70;99.90
3334;DHT22;1679;50.392;8.008;2023-05-07T09:12:33;20.40;99.90
3334;DHT22;1679;50.392;8.008;2023-05-07T09:15:00;20.20;99.90
3334;DHT22;1679;50.392;8.008;2023-05-07T09:17:26;20.00;99.90
3334;DHT22;1679;50.392;8.008;2023-05-07T09:19:53;19.60;99.90
3334;DHT22;1679;50.392;8.008;2023-05-07T09:22:19;19.50;99.90
3334;DHT22;1679;50.392;8.008;2023-05-07T09:24:51;19.20;99.90
3334;DHT22;1679;50.392;8.008;2023-05-07T09:27:17;19.20;99.90
3334;DHT22;1679;50.392;8.008;2023-05-07T09:29:44;19.40;99.90
3334;DHT22;1679;50.392;8.008;2023-05-07T09:32:09;19.50;99.90
3334;DHT22;1679;50.392;8.008;2023-05-07T09:34:35;19.70;99.90
3334;DHT22;1679;50.392;8.008;2023-05-07T09:37:05;20.20;99.90
3334;DHT22;1679;50.392;8.008;2023-05-07T09:39:47;20.50;99.90
3334;DHT22;1679;50.392;8.008;2023-05-07T09:42:13;20.60;99.90
3334;DHT22;1679;50.392;8.008;2023-05-07T09:44:43;20.80;99.90
3334;DHT22;1679;50.392;8.008;2023-05-07T09:47:10;20.80;99.90
3334;DHT22;1679;50.392;8.008;2023-05-07T09:49:38;20.60;99.90
3334;DHT22;1679;50.392;8.008;2023-05-07T09:52:05;20.50;99.90
3334;DHT22;1679;50.392;8.008;2023-05-07T09:54:33;20.80;99.90
3334;DHT22;1679;50.392;8.008;2023-05-07T09:57:01;21.20;99.90
3334;DHT22;1679;50.392;8.008;2023-05-07T09:59:28;21.20;99.90
3334;DHT22;1679;50.392;8.008;2023-05-07T10:01:57;21.10;99.90
3334;DHT22;1679;50.392;8.008;2023-05-07T10:04:24;21.20;99.90
3334;DHT22;1679;50.392;8.008;2023-05-07T10:06:50;21.00;99.90
3334;DHT22;1679;50.392;8.008;2023-05-07T10:09:15;20.90;99.90
3334;DHT22;1679;50.392;8.008;2023-05-07T10:11:41;20.70;99.90
3334;DHT22;1679;50.392;8.008;2023-05-07T10:14:09;20.90;99.90
3334;DHT22;1679;50.392;8.008;2023-05-07T10:16:37;21.20;99.90
3334;DHT22;1679;50.392;8.008;2023-05-07T10:19:07;21.70;99.90
3334;DHT22;1679;50.392;8.008;2023-05-07T10:21:37;21.80;99.90
3334;DHT22;1679;50.392;8.008;2023-05-07T10:24:15;21.50;99.90
3334;DHT22;1679;50.392;8.008;2023-05-07T10:26:44;21.50;99.90
3334;DHT22;1679;50.392;8.008;2023-05-07T10:32:07;21.60;99.90
3334;DHT22;1679;50.392;8.008;2023-05-07T10:34:40;21.60;99.90
3334;DHT22;1679;50.392;8.008;2023-05-07T10:37:07;21.80;99.90
3334;DHT22;1679;50.392;8.008;2023-05-07T10:39:34;21.70;99.90
3334;DHT22;1679;50.392;8.008;2023-05-07T10:42:10;21.60;99.90
3334;DHT22;1679;50.392;8.008;2023-05-07T10:44:36;21.50;99.90
3334;DHT22;1679;50.392;8.008;2023-05-07T10:47:10;21.70;99.90
3334;DHT22;1679;50.392;8.008;2023-05-07T10:50:23;21.80;99.90
3334;DHT22;1679;50.392;8.008;2023-05-07T10:52:24;21.60;99.90
3334;DHT22;1679;50.392;8.008;2023-05-07T10:57:40;22.30;99.90
3334;DHT22;1679;50.392;8.008;2023-05-07T11:05:32;22.00;99.90
3334;DHT22;1679;50.392;8.008;2023-05-07T11:08:02;21.70;99.90
3334;DHT22;1679;50.392;8.008;2023-05-07T11:10:56;21.60;99.90
3334;DHT22;1679;50.392;8.008;2023-05-07T11:13:41;21.60;99.90
3334;DHT22;1679;50.392;8.008;2023-05-07T11:18:50;22.00;99.90
3334;DHT22;1679;50.392;8.008;2023-05-07T11:21:41;21.70;99.90
3334;DHT22;1679;50.392;8.008;2023-05-07T11:24:08;21.80;99.90
3334;DHT22;1679;50.392;8.008;2023-05-07T11:26:48;21.80;99.90
3334;DHT22;1679;50.392;8.008;2023-05-07T11:29:15;21.90;99.90
3334;DHT22;1679;50.392;8.008;2023-05-07T11:31:41;22.10;99.90
3334;DHT22;1679;50.392;8.008;2023-05-07T11:34:07;22.20;99.90
3334;DHT22;1679;50.392;8.008;2023-05-07T11:36:33;22.20;99.90
3334;DHT22;1679;50.392;8.008;2023-05-07T11:38:59;22.10;99.90
3334;DHT22;1679;50.392;8.008;2023-05-07T11:41:34;22.10;99.90
3334;DHT22;1679;50.392;8.008;2023-05-07T11:44:01;22.00;99.90
3334;DHT22;1679;50.392;8.008;2023-05-07T11:46:28;22.10;99.90
3334;DHT22;1679;50.392;8.008;2023-05-07T11:48:55;22.20;99.90
3334;DHT22;1679;50.392;8.008;2023-05-07T11:51:23;22.40;99.90
3334;DHT22;1679;50.392;8.008;2023-05-07T11:53:50;22.50;99.90
3334;DHT22;1679;50.392;8.008;2023-05-07T11:56:17;22.30;99.90
3334;DHT22;1679;50.392;8.008;2023-05-07T11:58:44;22.30;99.90
3334;DHT22;1679;50.392;8.008;2023-05-07T12:01:12;22.30;99.90
3334;DHT22;1679;50.392;8.008;2023-05-07T12:03:40;22.30;99.90
3334;DHT22;1679;50.392;8.008;2023-05-07T12:06:11;22.50;99.90
3334;DHT22;1679;50.392;8.008;2023-05-07T12:08:39;23.00;99.90
3334;DHT22;1679;50.392;8.008;2023-05-07T12:11:08;23.30;99.90
3334;DHT22;1679;50.392;8.008;2023-05-07T12:13:36;23.50;99.90
3334;DHT22;1679;50.392;8.008;2023-05-07T12:16:02;23.80;99.90
3334;DHT22;1679;50.392;8.008;2023-05-07T12:18:29;23.80;99.90
3334;DHT22;1679;50.392;8.008;2023-05-07T12:20:55;23.80;99.90
3334;DHT22;1679;50.392;8.008;2023-05-07T12:23:22;23.70;99.90
3334;DHT22;1679;50.392;8.008;2023-05-07T12:25:48;23.60;99.90
3334;DHT22;1679;50.392;8.008;2023-05-07T12:28:18;23.40;99.90
3334;DHT22;1679;50.392;8.008;2023-05-07T12:30:45;23.20;99.90
3334;DHT22;1679;50.392;8.008;2023-05-07T12:33:11;23.00;99.90
3334;DHT22;1679;50.392;8.008;2023-05-07T12:35:39;22.80;99.90
3334;DHT22;1679;50.392;8.008;2023-05-07T12:38:09;22.90;99.90
3334;DHT22;1679;50.392;8.008;2023-05-07T12:40:46;22.70;99.90
3334;DHT22;1679;50.392;8.008;2023-05-07T12:43:27;22.50;99.90
3334;DHT22;1679;50.392;8.008;2023-05-07T12:45:55;22.60;99.90
3334;DHT22;1679;50.392;8.008;2023-05-07T12:48:21;22.80;99.90
3334;DHT22;1679;50.392;8.008;2023-05-07T12:50:51;22.90;99.90
3334;DHT22;1679;50.392;8.008;2023-05-07T12:53:19;22.80;99.90
3334;DHT22;1679;50.392;8.008;2023-05-07T12:55:50;22.60;99.90
3334;DHT22;1679;50.392;8.008;2023-05-07T12:58:20;22.60;99.90
3334;DHT22;1679;50.392;8.008;2023-05-07T13:00:48;22.70;99.90
3334;DHT22;1679;50.392;8.008;2023-05-07T13:03:31;22.70;99.90
3334;DHT22;1679;50.392;8.008;2023-05-07T13:06:10;22.80;99.90
3334;DHT22;1679;50.392;8.008;2023-05-07T13:08:39;22.80;99.90
3334;DHT22;1679;50.392;8.008;2023-05-07T13:11:10;22.80;99.90
3334;DHT22;1679;50.392;8.008;2023-05-07T13:13:38;22.90;99.90
3334;DHT22;1679;50.392;8.008;2023-05-07T13:16:06;23.10;99.90
3334;DHT22;1679;50.392;8.008;2023-05-07T13:18:32;23.00;99.90
3334;DHT22;1679;50.392;8.008;2023-05-07T13:20:59;23.00;99.90
3334;DHT22;1679;50.392;8.008;2023-05-07T13:23:26;23.00;99.90
3334;DHT22;1679;50.392;8.008;2023-05-07T13:25:52;23.10;99.90
3334;DHT22;1679;50.392;8.008;2023-05-07T13:28:19;23.20;99.90
3334;DHT22;1679;50.392;8.008;2023-05-07T13:30:46;23.20;99.90
3334;DHT22;1679;50.392;8.008;2023-05-07T13:33:11;23.30;99.90
3334;DHT22;1679;50.392;8.008;2023-05-07T13:35:37;23.30;99.90
3334;DHT22;1679;50.392;8.008;2023-05-07T13:38:03;23.30;99.90
3334;DHT22;1679;50.392;8.008;2023-05-07T13:40:29;23.30;99.90
3334;DHT22;1679;50.392;8.008;2023-05-07T13:42:57;23.20;99.90
3334;DHT22;1679;50.392;8.008;2023-05-07T13:45:23;23.10;99.90
3334;DHT22;1679;50.392;8.008;2023-05-07T13:47:51;23.00;99.90
3334;DHT22;1679;50.392;8.008;2023-05-07T13:50:16;23.10;99.90
3334;DHT22;1679;50.392;8.008;2023-05-07T13:52:43;23.10;99.90
3334;DHT22;1679;50.392;8.008;2023-05-07T13:55:16;23.10;99.90
3334;DHT22;1679;50.392;8.008;2023-05-07T13:57:41;23.10;99.90
3334;DHT22;1679;50.392;8.008;2023-05-07T14:00:07;23.00;99.90
3334;DHT22;1679;50.392;8.008;2023-05-07T14:02:33;22.90;99.90
3334;DHT22;1679;50.392;8.008;2023-05-07T14:05:00;22.90;99.90
3334;DHT22;1679;50.392;8.008;2023-05-07T14:07:25;22.90;99.90
3334;DHT22;1679;50.392;8.008;2023-05-07T14:09:53;22.90;99.90
3334;DHT22;1679;50.392;8.008;2023-05-07T14:12:18;23.00;99.90
3334;DHT22;1679;50.392;8.008;2023-05-07T14:14:44;23.10;99.90
3334;DHT22;1679;50.392;8.008;2023-05-07T14:17:11;23.10;99.90
3334;DHT22;1679;50.392;8.008;2023-05-07T14:19:37;23.20;99.90
3334;DHT22;1679;50.392;8.008;2023-05-07T14:22:02;23.20;99.90
3334;DHT22;1679;50.392;8.008;2023-05-07T14:24:28;23.40;99.90
3334;DHT22;1679;50.392;8.008;2023-05-07T14:26:53;23.50;99.90
3334;DHT22;1679;50.392;8.008;2023-05-07T14:29:19;23.60;99.90
3334;DHT22;1679;50.392;8.008;2023-05-07T14:31:46;23.60;99.90
3334;DHT22;1679;50.392;8.008;2023-05-07T14:34:11;23.70;99.90
3334;DHT22;1679;50.392;8.008;2023-05-07T14:36:37;23.60;99.90
3334;DHT22;1679;50.392;8.008;2023-05-07T14:39:03;23.30;99.90
3334;DHT22;1679;50.392;8.008;2023-05-07T14:41:29;23.30;99.90
3334;DHT22;1679;50.392;8.008;2023-05-07T14:43:55;23.20;99.90
3334;DHT22;1679;50.392;8.008;2023-05-07T14:46:21;23.20;99.90
3334;DHT22;1679;50.392;8.008;2023-05-07T14:48:46;23.30;99.90
3334;DHT22;1679;50.392;8.008;2023-05-07T14:51:13;23.30;99.90
3334;DHT22;1679;50.392;8.008;2023-05-07T14:53:40;23.10;99.90
3334;DHT22;1679;50.392;8.008;2023-05-07T14:56:06;23.10;99.90
3334;DHT22;1679;50.392;8.008;2023-05-07T14:58:31;23.10;99.90
3334;DHT22;1679;50.392;8.008;2023-05-07T15:00:57;23.10;99.90
3334;DHT22;1679;50.392;8.008;2023-05-07T15:03:25;23.20;99.90
3334;DHT22;1679;50.392;8.008;2023-05-07T15:05:51;23.20;99.90
3334;DHT22;1679;50.392;8.008;2023-05-07T15:08:17;23.10;99.90
3334;DHT22;1679;50.392;8.008;2023-05-07T15:10:43;23.10;99.90
3334;DHT22;1679;50.392;8.008;2023-05-07T15:13:09;23.00;99.90
3334;DHT22;1679;50.392;8.008;2023-05-07T15:15:36;23.00;99.90
3334;DHT22;1679;50.392;8.008;2023-05-07T15:18:03;23.00;99.90
3334;DHT22;1679;50.392;8.008;2023-05-07T15:20:30;23.10;99.90
3334;DHT22;1679;50.392;8.008;2023-05-07T15:22:56;23.10;99.90
3334;DHT22;1679;50.392;8.008;2023-05-07T15:25:22;23.10;99.90
3334;DHT22;1679;50.392;8.008;2023-05-07T15:27:48;23.20;99.90
3334;DHT22;1679;50.392;8.008;2023-05-07T15:30:14;23.20;99.90
3334;DHT22;1679;50.392;8.008;2023-05-07T15:32:40;23.20;99.90
3334;DHT22;1679;50.392;8.008;2023-05-07T15:35:06;23.30;99.90
3334;DHT22;1679;50.392;8.008;2023-05-07T15:37:32;23.30;99.90
3334;DHT22;1679;50.392;8.008;2023-05-07T15:39:57;23.30;99.90
3334;DHT22;1679;50.392;8.008;2023-05-07T15:42:23;23.40;99.90
3334;DHT22;1679;50.392;8.008;2023-05-07T15:44:49;23.40;99.90
3334;DHT22;1679;50.392;8.008;2023-05-07T15:47:15;23.40;99.90
3334;DHT22;1679;50.392;8.008;2023-05-07T15:49:41;23.40;99.90
3334;DHT22;1679;50.392;8.008;2023-05-07T15:52:07;23.30;99.90
3334;DHT22;1679;50.392;8.008;2023-05-07T15:54:35;23.20;99.90
3334;DHT22;1679;50.392;8.008;2023-05-07T15:57:03;23.20;99.90
3334;DHT22;1679;50.392;8.008;2023-05-07T15:59:31;23.10;99.90
3334;DHT22;1679;50.392;8.008;2023-05-07T16:01:57;23.20;99.90
3334;DHT22;1679;50.392;8.008;2023-05-07T16:04:23;23.10;99.90
3334;DHT22;1679;50.392;8.008;2023-05-07T16:06:48;23.10;99.90
3334;DHT22;1679;50.392;8.008;2023-05-07T16:09:14;23.00;99.90
3334;DHT22;1679;50.392;8.008;2023-05-07T16:11:42;23.00;99.90
3334;DHT22;1679;50.392;8.008;2023-05-07T16:14:08;22.80;99.90